Time,TemperatureF,DewpointF,PressureIn,WindDirection,WindDirectionDegrees,WindSpeedMPH,WindSpeedGustMPH,Humidity,HourlyPrecipIn,Conditions,Clouds,dailyrainin,SoftwareType,DateUTC
2015-09-03 01:12:00,62.0,3.0,-100.00,SSW,210,4.0,8.0,9,-99.99,,,-99.99,,2015-09-03 08:12:00,
2015-09-03 01:22:00,62.0,3.0,-100.00,SSW,203,4.0,8.0,9,-99.99,,,-99.99,,2015-09-03 08:22:00,
2015-09-03 01:33:00,61.0,2.0,-100.00,SSW,202,4.0,7.0,9,-99.99,,,-99.99,,2015-09-03 08:33:00,
2015-09-03 01:43:00,61.0,4.0,-100.00,SSW,204,4.0,9.0,10,-99.99,,,-99.99,,2015-09-03 08:43:00,
2015-09-03 01:53:00,60.0,12.0,-100.00,SW,215,4.0,5.0,15,-99.99,,,-99.99,,2015-09-03 08:53:00,
2015-09-03 02:02:00,60.0,9.0,-100.00,SSW,207,4.0,8.0,13,-99.99,,,-99.99,,2015-09-03 09:02:00,
2015-09-03 02:12:00,60.0,12.0,-100.00,SSW,204,4.0,6.0,15,-99.99,,,-99.99,,2015-09-03 09:12:00,
2015-09-03 02:22:00,59.0,13.0,-100.00,SSW,198,3.0,6.0,16,-99.99,,,-99.99,,2015-09-03 09:22:00,
2015-09-03 02:33:00,59.0,14.0,-100.00,SSW,199,3.0,5.0,17,-99.99,,,-99.99,,2015-09-03 09:33:00,
2015-09-03 02:43:00,59.0,13.0,-100.00,SSW,197,3.0,5.0,16,-99.99,,,-99.99,,2015-09-03 09:43:00,
2015-09-03 02:53:00,59.0,11.0,-100.00,SSW,199,3.0,5.0,15,-99.99,,,-99.99,,2015-09-03 09:53:00,
2015-09-03 03:02:00,60.0,11.0,-100.00,SSW,201,4.0,7.0,14,-99.99,,,-99.99,,2015-09-03 10:02:00,
2015-09-03 03:12:00,61.0,11.0,-100.00,SSW,210,4.0,6.0,14,-99.99,,,-99.99,,2015-09-03 10:12:00,
2015-09-03 03:23:00,61.0,8.0,-100.00,SW,217,5.0,7.0,12,-99.99,,,-99.99,,2015-09-03 10:23:00,
2015-09-03 03:33:00,61.0,10.0,-100.00,SW,216,4.0,7.0,13,-99.99,,,-99.99,,2015-09-03 10:33:00,
2015-09-03 03:43:00,61.0,10.0,-100.00,SW,214,4.0,7.0,13,-99.99,,,-99.99,,2015-09-03 10:43:00,
2015-09-03 03:53:00,61.0,10.0,-100.00,SW,216,5.0,7.0,13,-99.99,,,-99.99,,2015-09-03 10:53:00,
2015-09-03 04:03:00,61.0,11.0,-100.00,SW,218,5.0,8.0,14,-99.99,,,-99.99,,2015-09-03 11:03:00,
2015-09-03 04:12:00,62.0,11.0,-100.00,SW,215,4.0,7.0,13,-99.99,,,-99.99,,2015-09-03 11:12:00,
2015-09-03 04:23:00,62.0,9.0,-100.00,SW,216,4.0,6.0,12,-99.99,,,-99.99,,2015-09-03 11:23:00,
2015-09-03 04:33:00,62.0,11.0,-100.00,SW,221,4.0,6.0,13,-99.99,,,-99.99,,2015-09-03 11:33:00,
2015-09-03 04:43:00,62.0,12.0,-100.00,SW,217,4.0,6.0,14,-99.99,,,-99.99,,2015-09-03 11:43:00,
2015-09-03 04:53:00,62.0,11.0,-100.00,SW,218,4.0,6.0,13,-99.99,,,-99.99,,2015-09-03 11:53:00,
2015-09-03 05:12:00,63.0,3.0,-100.00,SW,217,4.0,6.0,9,-99.99,,,-99.99,,2015-09-03 12:12:00,
2015-09-03 05:23:00,62.0,5.0,-100.00,SW,217,4.0,6.0,10,-99.99,,,-99.99,,2015-09-03 12:23:00,
2015-09-03 05:33:00,62.0,3.0,-100.00,SW,218,4.0,6.0,9,-99.99,,,-99.99,,2015-09-03 12:33:00,
2015-09-03 05:53:00,63.0,6.0,-100.00,SSW,212,4.0,6.0,10,-99.99,,,-99.99,,2015-09-03 12:53:00,
2015-09-03 06:03:00,63.0,3.0,-100.00,SSW,212,4.0,7.0,9,-99.99,,,-99.99,,2015-09-03 13:03:00,
2015-09-03 06:12:00,63.0,6.0,-100.00,SSW,213,4.0,7.0,10,-99.99,,,-99.99,,2015-09-03 13:12:00,
2015-09-03 06:23:00,63.0,3.0,-100.00,SW,215,4.0,7.0,9,-99.99,,,-99.99,,2015-09-03 13:23:00,
2015-09-03 06:33:00,62.0,3.0,-100.00,SW,217,4.0,6.0,9,-99.99,,,-99.99,,2015-09-03 13:33:00,
2015-09-03 06:43:00,62.0,3.0,-100.00,SSW,213,3.0,5.0,9,-99.99,,,-99.99,,2015-09-03 13:43:00,
2015-09-03 06:53:00,62.0,3.0,-100.00,SSW,211,4.0,6.0,9,-99.99,,,-99.99,,2015-09-03 13:53:00,
2015-09-03 07:02:00,62.0,0.0,-100.00,SSW,213,4.0,5.0,8,-99.99,,,-99.99,,2015-09-03 14:02:00,
2015-09-03 07:12:00,61.0,6.0,-100.00,SSW,197,3.0,4.0,11,-99.99,,,-99.99,,2015-09-03 14:12:00,
2015-09-03 07:22:00,60.0,12.0,-100.00,South,185,2.0,5.0,15,-99.99,,,-99.99,,2015-09-03 14:22:00,
2015-09-03 07:33:00,60.0,14.0,-100.00,South,182,2.0,5.0,16,-99.99,,,-99.99,,2015-09-03 14:33:00,
2015-09-03 07:43:00,60.0,14.0,-100.00,South,184,2.0,5.0,16,-99.99,,,-99.99,,2015-09-03 14:43:00,
2015-09-03 07:53:00,60.0,14.0,-100.00,SSE,165,2.0,3.0,16,-99.99,,,-99.99,,2015-09-03 14:53:00,
2015-09-03 08:02:00,61.0,14.0,-100.00,SSE,161,2.0,3.0,16,-99.99,,,-99.99,,2015-09-03 15:02:00,
2015-09-03 08:12:00,62.0,15.0,-100.00,SSE,168,2.0,4.0,16,-99.99,,,-99.99,,2015-09-03 15:12:00,
2015-09-03 08:22:00,62.0,14.0,-100.00,South,170,2.0,4.0,15,-99.99,,,-99.99,,2015-09-03 15:22:00,
2015-09-03 08:33:00,63.0,13.0,-100.00,SSE,168,2.0,5.0,14,-99.99,,,-99.99,,2015-09-03 15:33:00,
2015-09-03 08:43:00,63.0,15.0,-100.00,SSE,168,2.0,4.0,15,-99.99,,,-99.99,,2015-09-03 15:43:00,
2015-09-03 08:53:00,64.0,12.0,-100.00,South,185,3.0,5.0,13,-99.99,,,-99.99,,2015-09-03 15:53:00,
2015-09-03 09:02:00,63.0,11.0,-100.00,South,189,3.0,5.0,13,-99.99,,,-99.99,,2015-09-03 16:02:00,
2015-09-03 09:12:00,64.0,12.0,-100.00,South,189,4.0,6.0,13,-99.99,,,-99.99,,2015-09-03 16:12:00,
2015-09-03 09:23:00,64.0,14.0,-100.00,South,186,3.0,6.0,14,-99.99,,,-99.99,,2015-09-03 16:23:00,
2015-09-03 09:33:00,64.0,12.0,-100.00,South,187,4.0,6.0,13,-99.99,,,-99.99,,2015-09-03 16:33:00,
2015-09-03 09:46:00,65.0,16.0,-100.00,South,185,4.0,6.0,15,-99.99,,,-99.99,,2015-09-03 16:46:00,
2015-09-03 09:53:00,65.0,16.0,-100.00,SSW,208,4.0,6.0,15,-99.99,,,-99.99,,2015-09-03 16:53:00,
2015-09-03 10:03:00,65.0,13.0,-100.00,SSW,211,3.0,7.0,13,-99.99,,,-99.99,,2015-09-03 17:03:00,
2015-09-03 10:13:00,66.0,14.0,-100.00,SSW,213,3.0,5.0,13,-99.99,,,-99.99,,2015-09-03 17:13:00,
2015-09-03 10:23:00,66.0,15.0,-100.00,SSW,200,4.0,8.0,14,-99.99,,,-99.99,,2015-09-03 17:23:00,
2015-09-03 10:33:00,66.0,20.0,-100.00,SW,218,4.0,6.0,17,-99.99,,,-99.99,,2015-09-03 17:33:00,
2015-09-03 10:43:00,67.0,23.0,-100.00,SSW,203,4.0,7.0,19,-99.99,,,-99.99,,2015-09-03 17:43:00,
2015-09-03 11:04:00,67.0,29.0,-100.00,SSW,207,4.0,9.0,24,-99.99,,,-99.99,,2015-09-03 18:04:00,
2015-09-03 11:13:00,67.0,32.0,-100.00,South,189,5.0,9.0,27,-99.99,,,-99.99,,2015-09-03 18:13:00,
2015-09-03 11:23:00,67.0,33.0,-100.00,SSW,193,4.0,9.0,28,-99.99,,,-99.99,,2015-09-03 18:23:00,
2015-09-03 11:33:00,67.0,31.0,-100.00,SSW,200,4.0,8.0,26,-99.99,,,-99.99,,2015-09-03 18:33:00,
2015-09-03 11:44:00,68.0,29.0,-100.00,SSW,203,4.0,8.0,23,-99.99,,,-99.99,,2015-09-03 18:44:00,
2015-09-03 11:53:00,68.0,28.0,-100.00,SSW,206,4.0,9.0,22,-99.99,,,-99.99,,2015-09-03 18:53:00,
2015-09-03 12:03:00,67.0,33.0,-100.00,SSW,204,5.0,9.0,28,-99.99,,,-99.99,,2015-09-03 19:03:00,
2015-09-03 12:14:00,66.0,39.0,-100.00,SSW,198,4.0,9.0,37,-99.99,,,-99.99,,2015-09-03 19:14:00,
2015-09-03 12:23:00,67.0,41.0,-100.00,SSW,197,5.0,12.0,38,-99.99,,,-99.99,,2015-09-03 19:23:00,
2015-09-03 12:33:00,67.0,42.0,-100.00,South,191,4.0,9.0,40,-99.99,,,-99.99,,2015-09-03 19:33:00,
2015-09-03 12:44:00,66.0,43.0,-100.00,SSW,201,5.0,8.0,43,-99.99,,,-99.99,,2015-09-03 19:44:00,
2015-09-03 12:53:00,66.0,41.0,-100.00,SSW,198,4.0,9.0,40,-99.99,,,-99.99,,2015-09-03 19:53:00,
2015-09-03 13:03:00,67.0,43.0,-100.00,SSW,201,4.0,8.0,42,-99.99,,,-99.99,,2015-09-03 20:03:00,
2015-09-03 13:12:00,67.0,43.0,-100.00,SSW,194,4.0,9.0,41,-99.99,,,-99.99,,2015-09-03 20:12:00,
2015-09-03 13:23:00,67.0,44.0,-100.00,SSW,209,4.0,9.0,43,-99.99,,,-99.99,,2015-09-03 20:23:00,
2015-09-03 13:33:00,66.0,44.0,-100.00,SW,218,4.0,10.0,45,-99.99,,,-99.99,,2015-09-03 20:33:00,
2015-09-03 13:43:00,67.0,47.0,-100.00,SSW,213,5.0,9.0,48,-99.99,,,-99.99,,2015-09-03 20:43:00,
2015-09-03 14:03:00,67.0,47.0,-100.00,SSW,205,5.0,10.0,49,-99.99,,,-99.99,,2015-09-03 21:03:00,
2015-09-03 14:12:00,67.0,48.0,-100.00,SW,214,6.0,11.0,50,-99.99,,,-99.99,,2015-09-03 21:12:00,
2015-09-03 14:23:00,67.0,47.0,-100.00,SSW,200,5.0,10.0,48,-99.99,,,-99.99,,2015-09-03 21:23:00,
2015-09-03 14:33:00,67.0,48.0,-100.00,SSW,212,5.0,10.0,50,-99.99,,,-99.99,,2015-09-03 21:33:00,
2015-09-03 14:43:00,68.0,48.0,-100.00,SW,214,5.0,9.0,49,-99.99,,,-99.99,,2015-09-03 21:43:00,
2015-09-03 14:53:00,67.0,48.0,-100.00,SSW,211,5.0,9.0,50,-99.99,,,-99.99,,2015-09-03 21:53:00,
2015-09-03 15:12:00,68.0,50.0,-100.00,SW,217,5.0,-999.0,52,-99.99,,,-99.99,,2015-09-03 22:12:00,
2015-09-03 15:23:00,68.0,50.0,-100.00,SW,217,5.0,10.0,52,-99.99,,,-99.99,,2015-09-03 22:23:00,
2015-09-03 15:33:00,67.0,51.0,-100.00,SW,224,3.0,9.0,56,-99.99,,,-99.99,,2015-09-03 22:33:00,
2015-09-03 15:43:00,66.0,49.0,-100.00,SSW,210,4.0,9.0,55,-99.99,,,-99.99,,2015-09-03 22:43:00,
2015-09-03 15:54:00,66.0,50.0,-100.00,SW,226,3.0,7.0,56,-99.99,,,-99.99,,2015-09-03 22:54:00,
2015-09-03 16:13:00,67.0,51.0,-100.00,SW,217,4.0,7.0,56,-99.99,,,-99.99,,2015-09-03 23:13:00,
2015-09-03 16:23:00,66.0,51.0,-100.00,SW,214,4.0,8.0,58,-99.99,,,-99.99,,2015-09-03 23:23:00,
2015-09-03 16:35:00,66.0,50.0,-100.00,SW,222,4.0,8.0,57,-99.99,,,-99.99,,2015-09-03 23:35:00,
2015-09-03 16:43:00,67.0,49.0,-100.00,SW,218,4.0,7.0,53,-99.99,,,-99.99,,2015-09-03 23:43:00,
2015-09-03 16:53:00,66.0,50.0,-100.00,SW,218,3.0,7.0,57,-99.99,,,-99.99,,2015-09-03 23:53:00,
2015-09-03 17:03:00,65.0,51.0,-100.00,SW,225,3.0,7.0,60,-99.99,,,-99.99,,2015-09-04 00:03:00,
2015-09-03 17:12:00,65.0,51.0,-100.00,SSW,208,3.0,8.0,60,-99.99,,,-99.99,,2015-09-04 00:12:00,
2015-09-03 17:33:00,64.0,49.0,-100.00,South,187,3.0,6.0,58,-99.99,,,-99.99,,2015-09-04 00:33:00,
2015-09-03 17:43:00,64.0,50.0,-100.00,SSW,192,3.0,7.0,60,-99.99,,,-99.99,,2015-09-04 00:43:00,
2015-09-03 18:02:00,63.0,48.0,-100.00,SSW,196,4.0,6.0,57,-99.99,,,-99.99,,2015-09-04 01:02:00,
2015-09-03 18:12:00,63.0,46.0,-100.00,SSW,200,3.0,6.0,54,-99.99,,,-99.99,,2015-09-04 01:12:00,
2015-09-03 18:22:00,64.0,42.0,-100.00,SSW,192,4.0,5.0,44,-99.99,,,-99.99,,2015-09-04 01:22:00,
2015-09-03 18:33:00,64.0,40.0,-100.00,SSW,201,4.0,6.0,41,-99.99,,,-99.99,,2015-09-04 01:33:00,
2015-09-03 18:43:00,64.0,38.0,-100.00,SSW,201,4.0,7.0,38,-99.99,,,-99.99,,2015-09-04 01:43:00,
2015-09-03 18:53:00,65.0,34.0,-100.00,SSW,212,4.0,8.0,32,-99.99,,,-99.99,,2015-09-04 01:53:00,
2015-09-03 19:02:00,63.0,35.0,-100.00,SSW,202,4.0,7.0,35,-99.99,,,-99.99,,2015-09-04 02:02:00,
2015-09-03 19:12:00,63.0,30.0,-100.00,SSW,205,4.0,8.0,29,-99.99,,,-99.99,,2015-09-04 02:12:00,